sensor_id;sensor_type;location;lat;lon;timestamp;temperature;humidity
12911;DHT22;6523;49.758;6.120;2023-07-16T00:01:52;17.50;99.90
12911;DHT22;6523;49.758;6.120;2023-07-16T00:04:17;17.50;99.90
12911;DHT22;6523;49.758;6.120;2023-07-16T00:06:43;17.50;99.90
12911;DHT22;6523;49.758;6.120;2023-07-16T00:09:08;17.50;99.90
12911;DHT22;6523;49.758;6.120;2023-07-16T00:11:34;17.50;99.90
12911;DHT22;6523;49.758;6.120;2023-07-16T00:13:59;17.40;99.90
12911;DHT22;6523;49.758;6.120;2023-07-16T00:16:27;17.40;99.90
12911;DHT22;6523;49.758;6.120;2023-07-16T00:18:53;17.40;99.90
12911;DHT22;6523;49.758;6.120;2023-07-16T00:21:18;17.40;99.90
12911;DHT22;6523;49.758;6.120;2023-07-16T00:23:44;17.30;99.90
12911;DHT22;6523;49.758;6.120;2023-07-16T00:26:09;17.30;99.90
12911;DHT22;6523;49.758;6.120;2023-07-16T00:28:35;17.30;99.90
12911;DHT22;6523;49.758;6.120;2023-07-16T00:31:01;17.30;99.90
12911;DHT22;6523;49.758;6.120;2023-07-16T00:33:26;17.30;99.90
12911;DHT22;6523;49.758;6.120;2023-07-16T00:35:52;17.20;99.90
12911;DHT22;6523;49.758;6.120;2023-07-16T00:38:18;17.20;99.90
12911;DHT22;6523;49.758;6.120;2023-07-16T00:40:44;17.20;99.90
12911;DHT22;6523;49.758;6.120;2023-07-16T00:43:10;17.10;99.90
12911;DHT22;6523;49.758;6.120;2023-07-16T00:45:36;17.10;99.90
12911;DHT22;6523;49.758;6.120;2023-07-16T00:48:04;17.10;99.90
12911;DHT22;6523;49.758;6.120;2023-07-16T00:50:31;17.10;99.90
12911;DHT22;6523;49.758;6.120;2023-07-16T00:53:02;17.00;99.90
12911;DHT22;6523;49.758;6.120;2023-07-16T00:55:30;17.00;99.90
12911;DHT22;6523;49.758;6.120;2023-07-16T00:58:01;17.00;99.90
12911;DHT22;6523;49.758;6.120;2023-07-16T01:00:31;17.00;99.90
12911;DHT22;6523;49.758;6.120;2023-07-16T01:02:56;16.90;99.90
12911;DHT22;6523;49.758;6.120;2023-07-16T01:05:23;16.80;99.90
12911;DHT22;6523;49.758;6.120;2023-07-16T01:07:59;16.80;99.90
12911;DHT22;6523;49.758;6.120;2023-07-16T01:10:26;16.80;99.90
12911;DHT22;6523;49.758;6.120;2023-07-16T01:12:54;16.80;99.90
12911;DHT22;6523;49.758;6.120;2023-07-16T01:15:20;16.80;99.90
12911;DHT22;6523;49.758;6.120;2023-07-16T01:17:46;16.70;99.90
12911;DHT22;6523;49.758;6.120;2023-07-16T01:20:11;16.70;99.90
12911;DHT22;6523;49.758;6.120;2023-07-16T01:23:15;16.60;99.90
12911;DHT22;6523;49.758;6.120;2023-07-16T01:26:02;16.60;99.90
12911;DHT22;6523;49.758;6.120;2023-07-16T01:31:17;16.50;99.90
12911;DHT22;6523;49.758;6.120;2023-07-16T01:33:44;16.50;99.90
12911;DHT22;6523;49.758;6.120;2023-07-16T01:36:11;16.50;99.90
12911;DHT22;6523;49.758;6.120;2023-07-16T01:38:37;16.50;99.90
12911;DHT22;6523;49.758;6.120;2023-07-16T01:41:02;16.50;99.90
12911;DHT22;6523;49.758;6.120;2023-07-16T01:43:28;16.50;99.90
12911;DHT22;6523;49.758;6.120;2023-07-16T01:45:54;16.40;99.90
12911;DHT22;6523;49.758;6.120;2023-07-16T01:48:35;16.40;99.90
12911;DHT22;6523;49.758;6.120;2023-07-16T01:51:01;16.30;99.90
12911;DHT22;6523;49.758;6.120;2023-07-16T01:53:27;16.30;99.90
12911;DHT22;6523;49.758;6.120;2023-07-16T01:55:53;16.30;99.90
12911;DHT22;6523;49.758;6.120;2023-07-16T01:58:18;16.30;99.90
12911;DHT22;6523;49.758;6.120;2023-07-16T02:00:44;16.30;99.90
12911;DHT22;6523;49.758;6.120;2023-07-16T02:03:11;16.20;99.90
12911;DHT22;6523;49.758;6.120;2023-07-16T02:05:36;16.20;99.90
12911;DHT22;6523;49.758;6.120;2023-07-16T02:08:02;16.20;99.90
12911;DHT22;6523;49.758;6.120;2023-07-16T02:10:27;16.20;99.90
12911;DHT22;6523;49.758;6.120;2023-07-16T02:12:53;16.10;99.90
12911;DHT22;6523;49.758;6.120;2023-07-16T02:15:19;16.10;99.90
12911;DHT22;6523;49.758;6.120;2023-07-16T02:17:44;16.10;99.90
12911;DHT22;6523;49.758;6.120;2023-07-16T02:20:10;16.10;99.90
12911;DHT22;6523;49.758;6.120;2023-07-16T02:22:36;16.10;99.90
12911;DHT22;6523;49.758;6.120;2023-07-16T02:25:02;16.00;99.90
12911;DHT22;6523;49.758;6.120;2023-07-16T02:27:28;15.90;99.90
12911;DHT22;6523;49.758;6.120;2023-07-16T02:29:54;15.90;99.90
12911;DHT22;6523;49.758;6.120;2023-07-16T02:32:20;15.90;99.90
12911;DHT22;6523;49.758;6.120;2023-07-16T02:34:45;15.90;99.90
12911;DHT22;6523;49.758;6.120;2023-07-16T02:37:11;15.90;99.90
12911;DHT22;6523;49.758;6.120;2023-07-16T02:39:39;15.90;99.90
12911;DHT22;6523;49.758;6.120;2023-07-16T02:42:04;15.90;99.90
12911;DHT22;6523;49.758;6.120;2023-07-16T02:44:30;15.80;99.90
12911;DHT22;6523;49.758;6.120;2023-07-16T02:46:56;15.80;99.90
12911;DHT22;6523;49.758;6.120;2023-07-16T02:49:21;15.80;99.90
12911;DHT22;6523;49.758;6.120;2023-07-16T02:51:47;15.70;99.90
12911;DHT22;6523;49.758;6.120;2023-07-16T02:54:12;15.60;99.90
12911;DHT22;6523;49.758;6.120;2023-07-16T02:56:38;15.60;99.90
12911;DHT22;6523;49.758;6.120;2023-07-16T02:59:03;15.60;99.90
12911;DHT22;6523;49.758;6.120;2023-07-16T03:01:29;15.60;99.90
12911;DHT22;6523;49.758;6.120;2023-07-16T03:03:55;15.50;99.90
12911;DHT22;6523;49.758;6.120;2023-07-16T03:06:20;15.50;99.90
12911;DHT22;6523;49.758;6.120;2023-07-16T03:08:46;15.50;99.90
12911;DHT22;6523;49.758;6.120;2023-07-16T03:11:12;15.50;99.90
12911;DHT22;6523;49.758;6.120;2023-07-16T03:13:37;15.40;99.90
12911;DHT22;6523;49.758;6.120;2023-07-16T03:16:03;15.40;99.90
12911;DHT22;6523;49.758;6.120;2023-07-16T03:18:29;15.40;99.90
12911;DHT22;6523;49.758;6.120;2023-07-16T03:20:56;15.40;99.90
12911;DHT22;6523;49.758;6.120;2023-07-16T03:23:22;15.30;99.90
12911;DHT22;6523;49.758;6.120;2023-07-16T03:25:48;15.30;99.90
12911;DHT22;6523;49.758;6.120;2023-07-16T03:28:13;15.20;99.90
12911;DHT22;6523;49.758;6.120;2023-07-16T03:30:39;15.20;99.90
12911;DHT22;6523;49.758;6.120;2023-07-16T03:33:04;15.30;99.90
12911;DHT22;6523;49.758;6.120;2023-07-16T03:35:30;15.30;99.90
12911;DHT22;6523;49.758;6.120;2023-07-16T03:37:56;15.20;99.90
12911;DHT22;6523;49.758;6.120;2023-07-16T03:40:26;15.20;99.90
12911;DHT22;6523;49.758;6.120;2023-07-16T03:42:51;15.20;99.90
12911;DHT22;6523;49.758;6.120;2023-07-16T03:45:17;15.20;99.90
12911;DHT22;6523;49.758;6.120;2023-07-16T03:47:43;15.10;99.90
12911;DHT22;6523;49.758;6.120;2023-07-16T03:50:09;15.00;99.90
12911;DHT22;6523;49.758;6.120;2023-07-16T03:52:34;15.00;99.90
12911;DHT22;6523;49.758;6.120;2023-07-16T03:55:00;15.10;99.90
12911;DHT22;6523;49.758;6.120;2023-07-16T03:57:28;15.10;99.90
12911;DHT22;6523;49.758;6.120;2023-07-16T03:59:53;15.10;99.90
12911;DHT22;6523;49.758;6.120;2023-07-16T04:02:19;15.10;99.90
12911;DHT22;6523;49.758;6.120;2023-07-16T04:04:44;15.10;99.90
12911;DHT22;6523;49.758;6.120;2023-07-16T04:07:10;15.10;99.90
12911;DHT22;6523;49.758;6.120;2023-07-16T04:09:38;15.10;99.90
12911;DHT22;6523;49.758;6.120;2023-07-16T04:12:05;15.10;99.90
12911;DHT22;6523;49.758;6.120;2023-07-16T04:14:31;15.10;99.90
12911;DHT22;6523;49.758;6.120;2023-07-16T04:16:57;15.00;99.90
12911;DHT22;6523;49.758;6.120;2023-07-16T04:19:23;14.90;99.90
12911;DHT22;6523;49.758;6.120;2023-07-16T04:21:48;14.90;99.90
12911;DHT22;6523;49.758;6.120;2023-07-16T04:24:14;15.00;99.90
12911;DHT22;6523;49.758;6.120;2023-07-16T04:26:39;15.00;99.90
12911;DHT22;6523;49.758;6.120;2023-07-16T04:29:05;15.00;99.90
12911;DHT22;6523;49.758;6.120;2023-07-16T04:31:30;15.00;99.90
12911;DHT22;6523;49.758;6.120;2023-07-16T04:33:56;15.00;99.90
12911;DHT22;6523;49.758;6.120;2023-07-16T04:36:21;15.00;99.90
12911;DHT22;6523;49.758;6.120;2023-07-16T04:38:47;15.00;99.90
12911;DHT22;6523;49.758;6.120;2023-07-16T04:41:12;15.00;99.90
12911;DHT22;6523;49.758;6.120;2023-07-16T04:43:39;14.90;99.90
12911;DHT22;6523;49.758;6.120;2023-07-16T04:46:04;14.90;99.90
12911;DHT22;6523;49.758;6.120;2023-07-16T04:48:30;14.90;99.90
12911;DHT22;6523;49.758;6.120;2023-07-16T04:50:56;14.90;99.90
12911;DHT22;6523;49.758;6.120;2023-07-16T04:53:22;15.00;99.90
12911;DHT22;6523;49.758;6.120;2023-07-16T04:55:48;15.00;99.90
12911;DHT22;6523;49.758;6.120;2023-07-16T04:58:15;15.10;99.90
12911;DHT22;6523;49.758;6.120;2023-07-16T05:00:40;15.10;99.90
12911;DHT22;6523;49.758;6.120;2023-07-16T05:03:06;15.10;99.90
12911;DHT22;6523;49.758;6.120;2023-07-16T05:05:31;15.10;99.90
12911;DHT22;6523;49.758;6.120;2023-07-16T05:07:57;15.10;99.90
12911;DHT22;6523;49.758;6.120;2023-07-16T05:10:23;15.10;99.90
12911;DHT22;6523;49.758;6.120;2023-07-16T05:12:48;15.20;99.90
12911;DHT22;6523;49.758;6.120;2023-07-16T05:15:14;15.20;99.90
12911;DHT22;6523;49.758;6.120;2023-07-16T05:17:40;15.20;99.90
12911;DHT22;6523;49.758;6.120;2023-07-16T05:20:07;15.20;99.90
12911;DHT22;6523;49.758;6.120;2023-07-16T05:22:33;15.30;99.90
12911;DHT22;6523;49.758;6.120;2023-07-16T05:24:58;15.30;99.90
12911;DHT22;6523;49.758;6.120;2023-07-16T05:27:24;15.30;99.90
12911;DHT22;6523;49.758;6.120;2023-07-16T05:29:49;15.40;99.90
12911;DHT22;6523;49.758;6.120;2023-07-16T05:32:15;15.40;99.90
12911;DHT22;6523;49.758;6.120;2023-07-16T05:34:41;15.40;99.90
12911;DHT22;6523;49.758;6.120;2023-07-16T05:37:06;15.40;99.90
12911;DHT22;6523;49.758;6.120;2023-07-16T05:39:32;15.40;99.90
12911;DHT22;6523;49.758;6.120;2023-07-16T05:41:57;15.40;99.90
12911;DHT22;6523;49.758;6.120;2023-07-16T05:44:23;15.50;99.90
12911;DHT22;6523;49.758;6.120;2023-07-16T05:46:48;15.50;99.90
12911;DHT22;6523;49.758;6.120;2023-07-16T05:49:14;15.50;99.90
12911;DHT22;6523;49.758;6.120;2023-07-16T05:51:39;15.50;99.90
12911;DHT22;6523;49.758;6.120;2023-07-16T05:54:05;15.60;99.90
12911;DHT22;6523;49.758;6.120;2023-07-16T05:56:31;15.70;99.90
12911;DHT22;6523;49.758;6.120;2023-07-16T05:58:57;15.80;99.90
12911;DHT22;6523;49.758;6.120;2023-07-16T06:01:22;15.70;99.90
12911;DHT22;6523;49.758;6.120;2023-07-16T06:03:48;15.70;99.90
12911;DHT22;6523;49.758;6.120;2023-07-16T06:06:14;15.70;99.90
12911;DHT22;6523;49.758;6.120;2023-07-16T06:08:39;15.80;99.90
12911;DHT22;6523;49.758;6.120;2023-07-16T06:11:05;15.80;99.90
12911;DHT22;6523;49.758;6.120;2023-07-16T06:13:31;15.90;99.90
12911;DHT22;6523;49.758;6.120;2023-07-16T06:15:56;15.90;99.90
12911;DHT22;6523;49.758;6.120;2023-07-16T06:18:22;15.90;99.90
12911;DHT22;6523;49.758;6.120;2023-07-16T06:20:48;16.00;99.90
12911;DHT22;6523;49.758;6.120;2023-07-16T06:23:13;16.10;99.90
12911;DHT22;6523;49.758;6.120;2023-07-16T06:25:41;16.20;99.90
12911;DHT22;6523;49.758;6.120;2023-07-16T06:28:10;16.30;99.90
12911;DHT22;6523;49.758;6.120;2023-07-16T06:30:36;16.20;99.90
12911;DHT22;6523;49.758;6.120;2023-07-16T06:33:02;16.30;99.90
12911;DHT22;6523;49.758;6.120;2023-07-16T06:35:27;16.40;99.90
12911;DHT22;6523;49.758;6.120;2023-07-16T06:37:53;16.40;99.90
12911;DHT22;6523;49.758;6.120;2023-07-16T06:40:18;16.50;99.90
12911;DHT22;6523;49.758;6.120;2023-07-16T06:42:44;16.60;99.90
12911;DHT22;6523;49.758;6.120;2023-07-16T06:45:10;16.60;99.90
12911;DHT22;6523;49.758;6.120;2023-07-16T06:47:35;16.80;99.90
12911;DHT22;6523;49.758;6.120;2023-07-16T06:50:01;16.80;99.90
12911;DHT22;6523;49.758;6.120;2023-07-16T06:52:26;16.60;99.90
12911;DHT22;6523;49.758;6.120;2023-07-16T06:54:53;16.70;99.90
12911;DHT22;6523;49.758;6.120;2023-07-16T06:57:19;16.90;99.90
12911;DHT22;6523;49.758;6.120;2023-07-16T06:59:45;16.90;99.90
12911;DHT22;6523;49.758;6.120;2023-07-16T07:02:11;16.90;99.90
12911;DHT22;6523;49.758;6.120;2023-07-16T07:04:37;16.90;99.90
12911;DHT22;6523;49.758;6.120;2023-07-16T07:07:03;17.10;99.90
12911;DHT22;6523;49.758;6.120;2023-07-16T07:09:28;17.00;99.90
12911;DHT22;6523;49.758;6.120;2023-07-16T07:11:54;17.20;99.90
12911;DHT22;6523;49.758;6.120;2023-07-16T07:14:20;17.30;99.90
12911;DHT22;6523;49.758;6.120;2023-07-16T07:16:45;17.10;99.90
12911;DHT22;6523;49.758;6.120;2023-07-16T07:19:11;17.10;99.90
12911;DHT22;6523;49.758;6.120;2023-07-16T07:21:36;17.30;99.90
12911;DHT22;6523;49.758;6.120;2023-07-16T07:24:02;17.40;99.90
12911;DHT22;6523;49.758;6.120;2023-07-16T07:26:27;17.60;99.90
12911;DHT22;6523;49.758;6.120;2023-07-16T07:28:53;17.40;99.90
12911;DHT22;6523;49.758;6.120;2023-07-16T07:31:18;17.50;99.90
12911;DHT22;6523;49.758;6.120;2023-07-16T07:33:44;17.50;99.90
12911;DHT22;6523;49.758;6.120;2023-07-16T07:36:09;17.60;99.90
12911;DHT22;6523;49.758;6.120;2023-07-16T07:38:35;17.70;99.90
12911;DHT22;6523;49.758;6.120;2023-07-16T07:41:01;17.90;99.90
12911;DHT22;6523;49.758;6.120;2023-07-16T07:43:26;17.70;99.90
12911;DHT22;6523;49.758;6.120;2023-07-16T07:45:52;17.80;99.90
12911;DHT22;6523;49.758;6.120;2023-07-16T07:48:18;17.90;99.90
12911;DHT22;6523;49.758;6.120;2023-07-16T07:50:43;17.90;99.90
12911;DHT22;6523;49.758;6.120;2023-07-16T07:53:11;18.20;99.90
12911;DHT22;6523;49.758;6.120;2023-07-16T07:55:36;18.20;99.90
12911;DHT22;6523;49.758;6.120;2023-07-16T07:58:02;18.30;99.90
12911;DHT22;6523;49.758;6.120;2023-07-16T08:00:27;18.30;99.90
12911;DHT22;6523;49.758;6.120;2023-07-16T08:02:53;18.50;99.90
12911;DHT22;6523;49.758;6.120;2023-07-16T08:05:19;18.80;99.90
12911;DHT22;6523;49.758;6.120;2023-07-16T08:07:44;18.80;99.90
12911;DHT22;6523;49.758;6.120;2023-07-16T08:10:10;18.60;99.90
12911;DHT22;6523;49.758;6.120;2023-07-16T08:12:36;18.50;99.90
12911;DHT22;6523;49.758;6.120;2023-07-16T08:15:01;18.80;99.90
12911;DHT22;6523;49.758;6.120;2023-07-16T08:17:27;18.90;99.90
12911;DHT22;6523;49.758;6.120;2023-07-16T08:19:52;18.50;99.90
12911;DHT22;6523;49.758;6.120;2023-07-16T08:22:18;18.20;99.90
12911;DHT22;6523;49.758;6.120;2023-07-16T08:24:43;18.30;99.90
12911;DHT22;6523;49.758;6.120;2023-07-16T08:27:09;18.60;99.90
12911;DHT22;6523;49.758;6.120;2023-07-16T08:29:37;19.10;99.90
12911;DHT22;6523;49.758;6.120;2023-07-16T08:32:03;19.60;99.90
12911;DHT22;6523;49.758;6.120;2023-07-16T08:34:29;19.20;99.90
12911;DHT22;6523;49.758;6.120;2023-07-16T08:36:54;19.20;99.90
12911;DHT22;6523;49.758;6.120;2023-07-16T08:39:20;19.50;99.90
12911;DHT22;6523;49.758;6.120;2023-07-16T08:41:46;19.80;99.90
12911;DHT22;6523;49.758;6.120;2023-07-16T08:44:12;19.60;99.90
12911;DHT22;6523;49.758;6.120;2023-07-16T08:46:39;19.30;99.90
12911;DHT22;6523;49.758;6.120;2023-07-16T08:49:07;19.40;99.90
12911;DHT22;6523;49.758;6.120;2023-07-16T08:51:34;19.70;99.90
12911;DHT22;6523;49.758;6.120;2023-07-16T08:54:00;19.70;99.90
12911;DHT22;6523;49.758;6.120;2023-07-16T08:56:26;19.00;99.90
12911;DHT22;6523;49.758;6.120;2023-07-16T08:58:54;19.40;99.90
12911;DHT22;6523;49.758;6.120;2023-07-16T09:01:21;20.20;99.90
12911;DHT22;6523;49.758;6.120;2023-07-16T09:03:47;20.40;99.90
12911;DHT22;6523;49.758;6.120;2023-07-16T09:06:12;20.20;99.90
12911;DHT22;6523;49.758;6.120;2023-07-16T09:08:38;20.10;99.90
12911;DHT22;6523;49.758;6.120;2023-07-16T09:11:04;19.80;99.90
12911;DHT22;6523;49.758;6.120;2023-07-16T09:13:30;20.00;99.90
12911;DHT22;6523;49.758;6.120;2023-07-16T09:15:57;19.80;99.90
12911;DHT22;6523;49.758;6.120;2023-07-16T09:18:24;19.50;99.90
12911;DHT22;6523;49.758;6.120;2023-07-16T09:20:57;19.50;99.90
12911;DHT22;6523;49.758;6.120;2023-07-16T09:23:25;20.00;99.90
12911;DHT22;6523;49.758;6.120;2023-07-16T09:25:51;20.30;99.90
12911;DHT22;6523;49.758;6.120;2023-07-16T09:28:18;20.50;99.90
12911;DHT22;6523;49.758;6.120;2023-07-16T09:30:44;20.20;99.90
12911;DHT22;6523;49.758;6.120;2023-07-16T09:33:11;20.90;99.90
12911;DHT22;6523;49.758;6.120;2023-07-16T09:35:37;20.60;99.90
12911;DHT22;6523;49.758;6.120;2023-07-16T09:38:03;20.70;99.90
12911;DHT22;6523;49.758;6.120;2023-07-16T09:40:29;21.00;99.90
12911;DHT22;6523;49.758;6.120;2023-07-16T09:42:55;21.30;99.90
12911;DHT22;6523;49.758;6.120;2023-07-16T09:45:21;21.40;99.90
12911;DHT22;6523;49.758;6.120;2023-07-16T09:47:47;21.00;99.90
12911;DHT22;6523;49.758;6.120;2023-07-16T09:50:12;21.30;99.90
12911;DHT22;6523;49.758;6.120;2023-07-16T09:52:38;21.90;99.90
12911;DHT22;6523;49.758;6.120;2023-07-16T09:55:07;21.00;96.40
12911;DHT22;6523;49.758;6.120;2023-07-16T09:57:39;21.60;99.90
12911;DHT22;6523;49.758;6.120;2023-07-16T10:00:09;21.70;97.00
12911;DHT22;6523;49.758;6.120;2023-07-16T10:02:38;21.20;95.70
12911;DHT22;6523;49.758;6.120;2023-07-16T10:05:17;21.70;93.40
12911;DHT22;6523;49.758;6.120;2023-07-16T10:07:50;21.60;83.00
12911;DHT22;6523;49.758;6.120;2023-07-16T10:10:16;21.20;84.50
12911;DHT22;6523;49.758;6.120;2023-07-16T10:12:54;22.00;87.90
12911;DHT22;6523;49.758;6.120;2023-07-16T10:15:27;21.70;72.60
12911;DHT22;6523;49.758;6.120;2023-07-16T10:17:53;20.90;71.80
12911;DHT22;6523;49.758;6.120;2023-07-16T10:20:37;21.30;84.00
12911;DHT22;6523;49.758;6.120;2023-07-16T10:23:14;22.40;67.90
12911;DHT22;6523;49.758;6.120;2023-07-16T10:25:57;22.50;49.80
12911;DHT22;6523;49.758;6.120;2023-07-16T10:28:22;22.30;48.70
12911;DHT22;6523;49.758;6.120;2023-07-16T10:30:50;21.80;43.90
12911;DHT22;6523;49.758;6.120;2023-07-16T10:33:15;21.70;48.00
12911;DHT22;6523;49.758;6.120;2023-07-16T10:35:45;22.30;45.90
12911;DHT22;6523;49.758;6.120;2023-07-16T10:38:11;22.30;45.10
12911;DHT22;6523;49.758;6.120;2023-07-16T10:40:44;22.50;43.00
12911;DHT22;6523;49.758;6.120;2023-07-16T10:43:11;23.00;41.00
12911;DHT22;6523;49.758;6.120;2023-07-16T10:45:36;22.80;37.50
12911;DHT22;6523;49.758;6.120;2023-07-16T10:48:02;22.70;38.30
12911;DHT22;6523;49.758;6.120;2023-07-16T10:50:28;22.50;29.90
12911;DHT22;6523;49.758;6.120;2023-07-16T10:52:55;22.70;36.40
12911;DHT22;6523;49.758;6.120;2023-07-16T10:55:22;22.60;35.80
12911;DHT22;6523;49.758;6.120;2023-07-16T10:57:48;22.80;42.70
12911;DHT22;6523;49.758;6.120;2023-07-16T11:00:20;22.60;26.10
12911;DHT22;6523;49.758;6.120;2023-07-16T11:02:46;22.30;25.20
12911;DHT22;6523;49.758;6.120;2023-07-16T11:05:13;22.20;27.60
12911;DHT22;6523;49.758;6.120;2023-07-16T11:07:43;22.30;26.60
12911;DHT22;6523;49.758;6.120;2023-07-16T11:10:09;22.90;22.40
12911;DHT22;6523;49.758;6.120;2023-07-16T11:12:35;23.20;30.00
12911;DHT22;6523;49.758;6.120;2023-07-16T11:15:00;23.20;27.10
12911;DHT22;6523;49.758;6.120;2023-07-16T11:17:26;22.80;25.80
12911;DHT22;6523;49.758;6.120;2023-07-16T11:19:53;22.80;28.20
12911;DHT22;6523;49.758;6.120;2023-07-16T11:22:19;23.20;25.80
12911;DHT22;6523;49.758;6.120;2023-07-16T11:24:47;22.90;20.90
12911;DHT22;6523;49.758;6.120;2023-07-16T11:27:18;23.70;22.80
12911;DHT22;6523;49.758;6.120;2023-07-16T11:29:48;23.80;14.40
12911;DHT22;6523;49.758;6.120;2023-07-16T11:32:25;23.20;15.50
12911;DHT22;6523;49.758;6.120;2023-07-16T11:34:52;22.10;23.30
12911;DHT22;6523;49.758;6.120;2023-07-16T11:37:19;23.00;32.40
12911;DHT22;6523;49.758;6.120;2023-07-16T11:39:46;23.30;21.20
12911;DHT22;6523;49.758;6.120;2023-07-16T11:42:12;24.50;25.90
12911;DHT22;6523;49.758;6.120;2023-07-16T11:44:37;24.30;15.40
12911;DHT22;6523;49.758;6.120;2023-07-16T11:47:03;22.80;15.60
12911;DHT22;6523;49.758;6.120;2023-07-16T11:49:29;22.60;23.50
12911;DHT22;6523;49.758;6.120;2023-07-16T11:51:56;22.10;27.10
12911;DHT22;6523;49.758;6.120;2023-07-16T11:54:22;21.90;29.30
12911;DHT22;6523;49.758;6.120;2023-07-16T11:56:48;22.30;25.60
12911;DHT22;6523;49.758;6.120;2023-07-16T11:59:13;23.40;18.00
12911;DHT22;6523;49.758;6.120;2023-07-16T12:01:39;23.70;12.90
12911;DHT22;6523;49.758;6.120;2023-07-16T12:04:04;24.20;22.60
12911;DHT22;6523;49.758;6.120;2023-07-16T12:06:30;24.20;11.10
12911;DHT22;6523;49.758;6.120;2023-07-16T12:08:55;24.80;9.40
12911;DHT22;6523;49.758;6.120;2023-07-16T12:11:21;24.40;1.00
12911;DHT22;6523;49.758;6.120;2023-07-16T12:13:47;23.50;10.50
12911;DHT22;6523;49.758;6.120;2023-07-16T12:16:13;23.40;4.60
12911;DHT22;6523;49.758;6.120;2023-07-16T12:18:38;22.50;9.10
12911;DHT22;6523;49.758;6.120;2023-07-16T12:21:04;23.60;14.80
12911;DHT22;6523;49.758;6.120;2023-07-16T12:23:31;24.10;3.60
12911;DHT22;6523;49.758;6.120;2023-07-16T12:25:57;24.50;6.40
12911;DHT22;6523;49.758;6.120;2023-07-16T12:28:22;23.60;1.00
12911;DHT22;6523;49.758;6.120;2023-07-16T12:30:48;22.70;5.00
12911;DHT22;6523;49.758;6.120;2023-07-16T12:33:13;23.20;13.50
12911;DHT22;6523;49.758;6.120;2023-07-16T12:35:39;23.50;7.80
12911;DHT22;6523;49.758;6.120;2023-07-16T12:38:05;23.50;9.10
12911;DHT22;6523;49.758;6.120;2023-07-16T12:40:30;23.70;4.20
12911;DHT22;6523;49.758;6.120;2023-07-16T12:42:56;23.40;8.70
12911;DHT22;6523;49.758;6.120;2023-07-16T12:45:21;22.80;10.80
12911;DHT22;6523;49.758;6.120;2023-07-16T12:47:47;22.40;12.20
12911;DHT22;6523;49.758;6.120;2023-07-16T12:50:12;22.50;17.30
12911;DHT22;6523;49.758;6.120;2023-07-16T12:52:38;22.20;15.50
12911;DHT22;6523;49.758;6.120;2023-07-16T12:55:04;23.20;13.40
12911;DHT22;6523;49.758;6.120;2023-07-16T12:57:29;24.00;6.80
12911;DHT22;6523;49.758;6.120;2023-07-16T12:59:55;24.30;3.40
12911;DHT22;6523;49.758;6.120;2023-07-16T13:02:20;23.90;1.00
12911;DHT22;6523;49.758;6.120;2023-07-16T13:04:46;22.80;12.00
12911;DHT22;6523;49.758;6.120;2023-07-16T13:07:11;22.30;17.50
12911;DHT22;6523;49.758;6.120;2023-07-16T13:09:38;22.10;18.80
12911;DHT22;6523;49.758;6.120;2023-07-16T13:12:04;22.30;19.00
12911;DHT22;6523;49.758;6.120;2023-07-16T13:14:29;23.60;8.90
12911;DHT22;6523;49.758;6.120;2023-07-16T13:16:55;24.40;3.80
12911;DHT22;6523;49.758;6.120;2023-07-16T13:19:20;24.20;2.00
12911;DHT22;6523;49.758;6.120;2023-07-16T13:21:46;23.50;3.60
12911;DHT22;6523;49.758;6.120;2023-07-16T13:24:11;23.50;8.10
12911;DHT22;6523;49.758;6.120;2023-07-16T13:26:37;24.00;2.50
12911;DHT22;6523;49.758;6.120;2023-07-16T13:29:02;24.10;1.00
12911;DHT22;6523;49.758;6.120;2023-07-16T13:31:28;23.30;6.30
12911;DHT22;6523;49.758;6.120;2023-07-16T13:33:54;23.40;8.10
12911;DHT22;6523;49.758;6.120;2023-07-16T13:36:19;24.30;2.90
12911;DHT22;6523;49.758;6.120;2023-07-16T13:38:45;24.10;1.00
12911;DHT22;6523;49.758;6.120;2023-07-16T13:41:10;23.90;1.00
12911;DHT22;6523;49.758;6.120;2023-07-16T13:43:36;23.10;7.50
12911;DHT22;6523;49.758;6.120;2023-07-16T13:46:01;23.30;12.50
12911;DHT22;6523;49.758;6.120;2023-07-16T13:48:27;23.40;9.50
12911;DHT22;6523;49.758;6.120;2023-07-16T13:50:52;24.50;3.50
12911;DHT22;6523;49.758;6.120;2023-07-16T13:53:18;24.20;1.00
12911;DHT22;6523;49.758;6.120;2023-07-16T13:55:44;23.40;4.60
12911;DHT22;6523;49.758;6.120;2023-07-16T13:58:10;23.00;10.60
12911;DHT22;6523;49.758;6.120;2023-07-16T14:00:36;23.50;5.90
12911;DHT22;6523;49.758;6.120;2023-07-16T14:03:01;24.00;8.10
12911;DHT22;6523;49.758;6.120;2023-07-16T14:05:27;23.50;1.00
12911;DHT22;6523;49.758;6.120;2023-07-16T14:07:53;23.30;1.80
12911;DHT22;6523;49.758;6.120;2023-07-16T14:10:19;23.30;3.10
12911;DHT22;6523;49.758;6.120;2023-07-16T14:12:44;24.00;5.10
12911;DHT22;6523;49.758;6.120;2023-07-16T14:15:10;24.90;1.00
12911;DHT22;6523;49.758;6.120;2023-07-16T14:17:36;24.50;1.00
12911;DHT22;6523;49.758;6.120;2023-07-16T14:20:01;24.80;1.00
12911;DHT22;6523;49.758;6.120;2023-07-16T14:22:27;24.10;1.00
12911;DHT22;6523;49.758;6.120;2023-07-16T14:24:53;23.60;1.00
12911;DHT22;6523;49.758;6.120;2023-07-16T14:27:19;24.00;1.00
12911;DHT22;6523;49.758;6.120;2023-07-16T14:29:45;24.20;1.00
12911;DHT22;6523;49.758;6.120;2023-07-16T14:32:11;23.80;1.00
12911;DHT22;6523;49.758;6.120;2023-07-16T14:34:36;23.20;1.00
12911;DHT22;6523;49.758;6.120;2023-07-16T14:37:02;23.20;1.00
12911;DHT22;6523;49.758;6.120;2023-07-16T14:39:28;23.60;1.00
12911;DHT22;6523;49.758;6.120;2023-07-16T14:41:54;23.50;1.00
12911;DHT22;6523;49.758;6.120;2023-07-16T14:44:20;24.10;1.00
12911;DHT22;6523;49.758;6.120;2023-07-16T14:46:45;24.60;1.00
12911;DHT22;6523;49.758;6.120;2023-07-16T14:49:12;25.60;1.00
12911;DHT22;6523;49.758;6.120;2023-07-16T14:51:37;25.20;1.00
12911;DHT22;6523;49.758;6.120;2023-07-16T14:54:06;24.90;1.00
12911;DHT22;6523;49.758;6.120;2023-07-16T14:56:32;24.60;1.00
12911;DHT22;6523;49.758;6.120;2023-07-16T14:58:58;24.20;1.00
12911;DHT22;6523;49.758;6.120;2023-07-16T15:01:23;24.50;1.00
12911;DHT22;6523;49.758;6.120;2023-07-16T15:03:49;24.80;1.00
12911;DHT22;6523;49.758;6.120;2023-07-16T15:06:14;25.90;1.00
12911;DHT22;6523;49.758;6.120;2023-07-16T15:08:40;26.00;1.00
12911;DHT22;6523;49.758;6.120;2023-07-16T15:11:06;25.70;1.00
12911;DHT22;6523;49.758;6.120;2023-07-16T15:13:31;26.00;1.00
12911;DHT22;6523;49.758;6.120;2023-07-16T15:15:57;24.30;1.00
12911;DHT22;6523;49.758;6.120;2023-07-16T15:18:24;24.30;1.00
12911;DHT22;6523;49.758;6.120;2023-07-16T15:20:56;25.10;1.00
12911;DHT22;6523;49.758;6.120;2023-07-16T15:23:23;24.90;1.00
12911;DHT22;6523;49.758;6.120;2023-07-16T15:25:49;25.10;1.00
12911;DHT22;6523;49.758;6.120;2023-07-16T15:28:14;25.50;1.00
12911;DHT22;6523;49.758;6.120;2023-07-16T15:30:40;25.00;1.00
12911;DHT22;6523;49.758;6.120;2023-07-16T15:33:06;24.80;1.00
12911;DHT22;6523;49.758;6.120;2023-07-16T15:35:32;25.20;1.00
12911;DHT22;6523;49.758;6.120;2023-07-16T15:37:57;25.00;1.00
12911;DHT22;6523;49.758;6.120;2023-07-16T15:40:25;25.10;1.00
12911;DHT22;6523;49.758;6.120;2023-07-16T15:42:50;25.20;1.00
12911;DHT22;6523;49.758;6.120;2023-07-16T15:45:18;25.30;1.00
12911;DHT22;6523;49.758;6.120;2023-07-16T15:47:44;24.80;1.00